Time;durP1;ratioP1;P1;durP2;ratioP2;P2;SDS_P1;SDS_P2;PMS_P1;PMS_P2;Temp;Humidity;BMP_temperature;BMP_pressure;BME280_temperature;BME280_humidity;BME280_pressure;Samples;Min_cycle;Max_cycle;Signal;HPM_P1;HPM_P2
2022/06/07 00:01:40;;;;;;;6.25;2.28;;;;;;;20.83;58.38;99860.34;4964296;28;20471;-80
2022/06/07 00:04:07;;;;;;;4.75;2.33;;;;;;;20.80;58.21;99858.88;4996258;28;20126;-80
2022/06/07 00:06:34;;;;;;;4.88;2.28;;;;;;;20.80;58.35;99860.75;4961307;28;20042;-84
2022/06/07 00:09:00;;;;;;;4.75;2.10;;;;;;;20.78;58.31;99863.63;4971119;28;20101;-84
2022/06/07 00:11:27;;;;;;;2.60;2.40;;;;;;;20.77;58.37;99859.28;4947529;28;20050;-84
2022/06/07 00:13:57;;;;;;;3.65;2.22;;;;;;;20.73;58.46;99857.19;4976794;28;20046;-84
2022/06/07 00:16:24;;;;;;;4.53;2.38;;;;;;;20.75;58.31;99855.94;4951616;28;20042;-85
2022/06/07 00:18:51;;;;;;;3.45;2.47;;;;;;;20.74;58.46;99862.41;4978956;28;20141;-84
2022/06/07 00:21:17;;;;;;;4.72;2.42;;;;;;;20.75;58.35;99860.53;4963764;28;20042;-85
2022/06/07 00:23:44;;;;;;;4.88;2.40;;;;;;;20.74;58.50;99864.28;4973895;28;20042;-81
2022/06/07 00:26:13;;;;;;;3.75;2.50;;;;;;;20.71;58.27;99856.56;4975059;28;20046;-81
2022/06/07 00:28:40;;;;;;;2.63;2.28;;;;;;;20.72;58.38;99855.53;4961758;28;20133;-80
2022/06/07 00:31:07;;;;;;;4.53;2.35;;;;;;;20.73;58.57;99863.41;4984862;28;20050;-80
2022/06/07 00:33:33;;;;;;;3.58;2.47;;;;;;;20.72;58.52;99867.16;4973290;28;20042;-81
2022/06/07 00:36:04;;;;;;;3.83;2.10;;;;;;;20.71;58.48;99867.34;4981727;28;20426;-81
2022/06/07 00:38:32;;;;;;;3.13;2.22;;;;;;;20.71;58.47;99860.09;4981653;28;20042;-81
2022/06/07 00:40:59;;;;;;;3.05;2.38;;;;;;;20.74;58.34;99864.28;4963877;28;20047;-80
2022/06/07 00:43:26;;;;;;;3.72;2.42;;;;;;;20.73;58.64;99857.19;4974935;28;20394;-81
2022/06/07 00:45:53;;;;;;;2.40;2.20;;;;;;;20.72;58.52;99864.47;4996539;28;20446;-80
2022/06/07 00:48:21;;;;;;;3.03;2.40;;;;;;;20.72;58.63;99855.53;4972432;28;20125;-80
2022/06/07 00:50:57;;;;;;;3.88;2.60;;;;;;;20.71;58.45;99864.66;4978581;28;20046;-81
2022/06/07 00:53:33;;;;;;;5.72;2.35;;;;;;;20.69;58.56;99864.03;4969809;28;20057;-81
2022/06/07 00:56:15;;;;;;;4.95;2.40;;;;;;;20.70;58.55;99863.00;4947604;28;20057;-81
2022/06/07 00:58:42;;;;;;;5.30;2.60;;;;;;;20.68;58.43;99862.34;4966507;28;20494;-80
2022/06/07 01:01:08;;;;;;;2.78;2.55;;;;;;;20.65;58.87;99863.59;4996086;28;20046;-81
2022/06/07 01:03:39;;;;;;;4.32;2.30;;;;;;;20.65;58.75;99863.59;4996195;28;20046;-81
2022/06/07 01:11:44;;;;;;;5.03;2.78;;;;;;;20.64;58.56;99863.81;4999219;28;20042;-81
2022/06/07 01:14:12;;;;;;;2.72;2.30;;;;;;;20.63;58.61;99862.13;4991401;28;20054;-80
2022/06/07 01:16:39;;;;;;;3.53;2.30;;;;;;;20.61;58.58;99856.94;4995709;28;20046;-81
2022/06/07 01:19:06;;;;;;;6.20;2.40;;;;;;;20.60;58.67;99853.41;4957444;28;20077;-81
2022/06/07 01:21:40;;;;;;;7.25;2.58;;;;;;;20.59;58.56;99851.75;4969217;28;20058;-81
2022/06/07 01:24:12;;;;;;;3.53;2.40;;;;;;;20.58;58.02;99855.47;4943479;28;20047;-86
2022/06/07 01:26:54;;;;;;;4.75;2.28;;;;;;;20.61;58.39;99854.25;4949905;28;20879;-86
2022/06/07 01:29:22;;;;;;;6.28;2.47;;;;;;;20.62;58.55;99855.91;4950678;28;20563;-86
2022/06/07 01:31:49;;;;;;;6.05;2.78;;;;;;;20.65;58.37;99857.38;4968244;28;20047;-86
2022/06/07 01:34:20;;;;;;;4.25;2.70;;;;;;;20.67;58.58;99861.53;4964773;28;20518;-85
2022/06/07 01:36:47;;;;;;;8.45;2.70;;;;;;;20.66;58.68;99857.19;4943243;28;20054;-85
2022/06/07 01:42:00;;;;;;;4.55;2.20;;;;;;;20.65;59.02;99854.66;4947123;28;20069;-86
2022/06/07 01:44:31;;;;;;;3.65;2.28;;;;;;;20.64;58.68;99858.41;4966820;28;20046;-86
2022/06/07 01:47:00;;;;;;;4.63;2.53;;;;;;;20.63;59.08;99849.47;4973627;28;20047;-86
2022/06/07 01:49:29;;;;;;;6.20;2.60;;;;;;;20.62;59.07;99855.06;4942110;28;20499;-85
2022/06/07 01:51:56;;;;;;;5.45;2.78;;;;;;;20.60;59.35;99850.69;4956193;28;20581;-86
2022/06/07 01:54:23;;;;;;;4.43;2.50;;;;;;;20.58;59.49;99850.09;4941527;28;20047;-86
2022/06/07 01:56:52;;;;;;;4.20;2.42;;;;;;;20.59;59.36;99846.34;4944763;28;21169;-85
2022/06/07 01:59:20;;;;;;;3.65;2.47;;;;;;;20.59;59.50;99843.66;4982124;28;20046;-86
2022/06/07 02:01:47;;;;;;;2.92;2.60;;;;;;;20.59;59.47;99848.22;4956748;28;20065;-86
2022/06/07 02:04:14;;;;;;;4.53;2.42;;;;;;;20.57;59.52;99844.88;4969200;28;20055;-84
2022/06/07 02:06:41;;;;;;;3.00;2.20;;;;;;;20.55;59.18;99841.53;4962071;28;20398;-86
2022/06/07 02:09:12;;;;;;;3.50;2.28;;;;;;;20.56;59.32;99843.22;4960423;28;20129;-84
2022/06/07 02:11:40;;;;;;;3.42;2.80;;;;;;;20.55;59.22;99847.78;4970952;28;20052;-85
2022/06/07 02:14:09;;;;;;;2.85;2.13;;;;;;;20.53;59.13;99833.63;4963208;28;20050;-85
2022/06/07 02:16:36;;;;;;;2.88;2.30;;;;;;;20.52;59.04;99833.84;4966246;28;21870;-85
2022/06/07 02:19:04;;;;;;;6.43;2.55;;;;;;;20.50;59.23;99827.78;4977625;28;20053;-85
2022/06/07 02:21:34;;;;;;;4.65;2.22;;;;;;;20.47;59.43;99825.50;4966917;28;20054;-84
2022/06/07 02:24:01;;;;;;;3.78;2.72;;;;;;;20.44;59.46;99826.75;4950324;28;20050;-85
2022/06/07 02:26:29;;;;;;;2.75;2.40;;;;;;;20.42;59.47;99823.41;4951780;28;20051;-84
2022/06/07 02:28:59;;;;;;;4.05;2.25;;;;;;;20.40;59.51;99828.16;4969891;28;20050;-85
2022/06/07 02:31:27;;;;;;;2.97;2.67;;;;;;;20.38;59.44;99816.75;4977521;28;20049;-85
2022/06/07 02:33:55;;;;;;;2.38;2.17;;;;;;;20.37;59.75;99821.31;4962867;28;20046;-85
2022/06/07 02:36:22;;;;;;;4.15;2.28;;;;;;;20.35;59.71;99817.13;4956439;28;20038;-84
2022/06/07 02:38:49;;;;;;;6.30;2.30;;;;;;;20.33;59.84;99811.13;4968531;28;20046;-85
2022/06/07 02:45:22;;;;;;;2.10;1.90;;;;;;;20.30;59.68;99823.16;4961486;28;20110;-80
2022/06/07 02:47:49;;;;;;;4.00;2.22;;;;;;;20.29;59.81;99820.66;4975559;28;20050;-83
2022/06/07 02:50:19;;;;;;;4.85;2.47;;;;;;;20.26;60.18;99815.66;4935495;28;20042;-82
2022/06/07 02:52:49;;;;;;;4.25;2.40;;;;;;;20.24;60.12;99813.16;4966111;28;20105;-85
2022/06/07 02:55:24;;;;;;;6.50;2.17;;;;;;;20.23;60.39;99813.38;4975087;28;20548;-85
2022/06/07 02:57:55;;;;;;;2.70;2.13;;;;;;;20.20;60.47;99814.59;4955439;28;20046;-80
2022/06/07 03:00:25;;;;;;;4.30;2.25;;;;;;;20.16;60.72;99814.16;4944205;28;20611;-80
2022/06/07 03:02:52;;;;;;;4.78;2.42;;;;;;;20.14;60.80;99808.09;4962724;28;20509;-85
2022/06/07 03:05:21;;;;;;;2.85;2.20;;;;;;;20.13;60.99;99811.03;4947439;28;20051;-84
2022/06/07 03:07:52;;;;;;;4.20;2.50;;;;;;;20.13;60.79;99808.31;4971015;28;20046;-86
2022/06/07 03:10:20;;;;;;;2.35;1.90;;;;;;;20.11;60.80;99808.50;4975849;28;20465;-85
2022/06/07 03:12:48;;;;;;;4.72;2.05;;;;;;;20.11;60.74;99810.38;4968311;28;20262;-87
2022/06/07 03:15:18;;;;;;;4.43;1.88;;;;;;;20.13;60.30;99814.53;4957003;28;20069;-87
2022/06/07 03:17:45;;;;;;;3.90;2.28;;;;;;;20.14;60.49;99810.81;4932215;28;20051;-86
2022/06/07 03:20:15;;;;;;;2.33;1.83;;;;;;;20.16;60.50;99821.41;4949454;28;20050;-86
2022/06/07 03:22:43;;;;;;;4.70;2.03;;;;;;;20.13;60.07;99817.25;4935713;28;20070;-84
2022/06/07 03:25:11;;;;;;;2.65;1.92;;;;;;;20.14;60.22;99801.91;4937321;28;20078;-82
2022/06/07 03:27:40;;;;;;;4.70;2.28;;;;;;;20.11;60.58;99805.00;4945270;28;20343;-83
2022/06/07 03:30:12;;;;;;;3.88;2.30;;;;;;;20.08;60.56;99817.00;4952179;28;20046;-83
2022/06/07 03:32:42;;;;;;;2.40;2.00;;;;;;;20.03;60.44;99822.16;4950314;28;20034;-83
2022/06/07 03:35:10;;;;;;;2.58;1.70;;;;;;;19.98;60.58;99824.59;4952027;28;20145;-87
2022/06/07 03:38:07;;;;;;;3.33;1.80;;;;;;;19.90;61.52;99820.22;4979353;28;20047;-87
2022/06/07 03:40:43;;;;;;;2.42;1.40;;;;;;;19.92;60.78;99822.69;4944222;28;20043;-89
2022/06/07 03:43:15;;;;;;;4.45;1.77;;;;;;;19.89;61.07;99826.59;4931261;28;20055;-90
2022/06/07 03:45:42;;;;;;;2.25;1.67;;;;;;;19.88;61.07;99829.50;4934207;28;20043;-90
2022/06/07 03:48:13;;;;;;;3.78;1.92;;;;;;;19.85;61.21;99828.06;4935979;28;20083;-83
2022/06/07 03:50:45;;;;;;;4.03;1.85;;;;;;;19.84;60.98;99825.53;4952341;28;20142;-83
2022/06/07 03:53:12;;;;;;;2.67;1.65;;;;;;;19.83;61.21;99821.19;4933271;28;20051;-83
2022/06/07 03:55:47;;;;;;;2.80;1.52;;;;;;;19.80;61.24;99822.41;4942029;28;20369;-83
2022/06/07 03:58:16;;;;;;;4.25;2.30;;;;;;;19.78;60.94;99815.56;4945419;28;20050;-82
2022/06/07 04:00:44;;;;;;;4.20;1.77;;;;;;;19.76;61.55;99817.59;4948621;28;20066;-83
2022/06/07 04:03:11;;;;;;;2.55;2.03;;;;;;;19.75;61.75;99832.13;4967921;28;20051;-83
2022/06/07 04:05:40;;;;;;;2.80;1.70;;;;;;;19.75;61.77;99837.50;4924430;28;20518;-85
2022/06/07 04:08:12;;;;;;;5.55;2.10;;;;;;;19.75;61.85;99834.81;4962474;28;20588;-84
2022/06/07 04:10:56;;;;;;;3.40;2.10;;;;;;;19.73;62.04;99837.69;4969729;28;20085;-83
2022/06/07 04:13:29;;;;;;;4.25;1.98;;;;;;;19.73;61.77;99835.81;4960516;28;20046;-82
2022/06/07 04:16:05;;;;;;;2.10;1.90;;;;;;;19.70;61.84;99830.00;4982217;28;20050;-82
2022/06/07 04:18:34;;;;;;;2.35;2.15;;;;;;;19.70;61.73;99830.84;4963587;28;20475;-82
2022/06/07 04:21:56;;;;;;;3.92;1.92;;;;;;;19.65;62.22;99821.66;4946841;28;20050;-82
2022/06/07 04:24:32;;;;;;;5.65;2.38;;;;;;;19.69;61.84;99820.25;4926779;28;20422;-84
2022/06/07 04:27:00;;;;;;;3.00;2.15;;;;;;;19.69;61.77;99818.41;4948805;28;20050;-82
2022/06/07 04:29:28;;;;;;;5.93;2.33;;;;;;;19.69;62.02;99823.78;4964228;28;20089;-83
2022/06/07 04:31:57;;;;;;;6.72;2.13;;;;;;;19.71;62.09;99839.75;4962552;28;20107;-83
2022/06/07 04:34:25;;;;;;;4.32;2.17;;;;;;;19.75;62.22;99840.19;4973795;28;20043;-82
2022/06/07 04:36:53;;;;;;;4.03;2.50;;;;;;;19.77;62.32;99847.06;4934363;28;20053;-82
2022/06/07 04:39:25;;;;;;;3.55;1.90;;;;;;;19.79;62.29;99844.97;4912227;28;20510;-83
2022/06/07 04:41:59;;;;;;;4.95;2.28;;;;;;;19.82;62.56;99841.91;4957777;28;20042;-82
2022/06/07 04:44:34;;;;;;;3.85;1.90;;;;;;;19.86;62.31;99845.03;4936726;28;20386;-83
2022/06/07 04:47:02;;;;;;;2.40;2.15;;;;;;;19.86;62.40;99848.56;4969795;28;20053;-83
2022/06/07 04:49:29;;;;;;;2.92;2.10;;;;;;;19.88;62.33;99843.00;4951671;28;20042;-83
2022/06/07 04:51:57;;;;;;;4.30;2.60;;;;;;;19.89;62.33;99845.47;4952801;28;20053;-82
2022/06/07 04:54:30;;;;;;;2.70;2.05;;;;;;;19.90;62.41;99852.53;4950418;28;20050;-82
2022/06/07 04:57:00;;;;;;;3.58;2.30;;;;;;;19.91;62.42;99858.75;4969027;28;20042;-83
2022/06/07 04:59:28;;;;;;;4.28;2.22;;;;;;;19.92;62.40;99855.03;4983018;28;20062;-82
2022/06/07 05:01:58;;;;;;;2.63;1.85;;;;;;;19.93;62.13;99846.75;4972989;28;20050;-82
2022/06/07 05:04:28;;;;;;;6.30;2.28;;;;;;;19.96;62.08;99853.63;4965486;28;20077;-83
2022/06/07 05:06:59;;;;;;;3.25;2.20;;;;;;;19.94;62.17;99855.66;4957600;28;20394;-88
2022/06/07 05:09:47;;;;;;;2.88;2.08;;;;;;;19.93;61.80;99862.94;4937263;28;20109;-87
2022/06/07 05:12:22;;;;;;;9.52;2.90;;;;;;;19.92;62.15;99858.59;4920402;28;20045;-89
2022/06/07 05:14:52;;;;;;;3.63;2.00;;;;;;;19.89;61.88;99855.44;4954638;28;20062;-88
2022/06/07 05:17:25;;;;;;;4.13;2.35;;;;;;;19.90;62.00;99857.94;4965769;28;20544;-89
2022/06/07 05:19:57;;;;;;;3.88;2.45;;;;;;;19.92;62.49;99863.97;4932473;28;20055;-89
2022/06/07 05:22:26;;;;;;;3.13;2.13;;;;;;;19.98;62.29;99867.72;4926854;28;20172;-87
2022/06/07 05:24:55;;;;;;;3.55;2.03;;;;;;;20.06;62.44;99867.56;4947722;28;20097;-87
2022/06/07 05:27:38;;;;;;;6.93;2.20;;;;;;;20.13;62.27;99873.03;4966774;28;20480;-87
2022/06/07 05:30:11;;;;;;;3.85;1.92;;;;;;;20.24;62.07;99875.16;4996197;28;20112;-88
2022/06/07 05:32:43;;;;;;;6.22;2.33;;;;;;;20.33;61.41;99876.69;4945103;28;20035;-86
2022/06/07 05:35:14;;;;;;;6.90;2.05;;;;;;;20.32;60.77;99866.91;4933993;28;20130;-86
2022/06/07 05:37:47;;;;;;;5.18;2.00;;;;;;;20.27;60.75;99868.53;4929393;28;20065;-86
2022/06/07 05:40:22;;;;;;;6.43;1.80;;;;;;;20.25;59.99;99868.75;4962919;28;20762;-86
2022/06/07 05:42:50;;;;;;;3.60;1.90;;;;;;;20.27;59.90;99869.38;4960008;28;20061;-86
2022/06/07 05:45:34;;;;;;;3.65;2.10;;;;;;;20.33;60.21;99879.38;4902476;28;20129;-85
2022/06/07 05:48:08;;;;;;;3.40;2.03;;;;;;;20.38;60.71;99878.78;4965384;28;20060;-85
2022/06/07 05:50:44;;;;;;;5.13;1.88;;;;;;;20.39;60.46;99877.75;4940072;28;22425;-85
2022/06/07 05:53:12;;;;;;;4.03;1.70;;;;;;;20.50;59.36;99879.03;4976150;28;20070;-86
2022/06/07 05:55:41;;;;;;;1.90;1.20;;;;;;;20.50;59.09;99890.66;4929799;28;20091;-86
2022/06/07 05:58:10;;;;;;;3.97;1.30;;;;;;;20.48;59.10;99879.25;4946196;28;20055;-85
2022/06/07 06:00:38;;;;;;;1.50;1.10;;;;;;;20.50;58.76;99887.97;4946508;28;20079;-86
2022/06/07 06:03:06;;;;;;;3.63;1.45;;;;;;;20.56;58.82;99876.44;4923136;28;20038;-85
2022/06/07 06:05:45;;;;;;;;;;;;;;;20.47;58.29;99891.06;4935123;28;20062;-82
2022/06/07 06:11:13;;;;;;;1.92;1.55;;;;;;;20.66;58.16;99881.47;4934828;28;20051;-90
2022/06/07 06:13:47;;;;;;;2.90;1.70;;;;;;;20.70;58.34;99877.31;4931656;28;20123;-89
2022/06/07 06:16:20;;;;;;;1.95;1.60;;;;;;;20.75;57.64;99874.84;4972102;28;20056;-89
2022/06/07 06:18:53;;;;;;;4.13;1.60;;;;;;;20.73;57.90;99876.91;4931485;28;20498;-89
2022/06/07 06:21:23;;;;;;;2.72;1.52;;;;;;;20.71;57.93;99873.59;4947082;28;20108;-84
2022/06/07 06:23:51;;;;;;;2.78;1.50;;;;;;;20.73;58.00;99870.69;4937144;28;20081;-88
2022/06/07 06:26:20;;;;;;;3.17;1.38;;;;;;;20.72;58.09;99875.25;4952771;28;20521;-85
2022/06/07 06:28:49;;;;;;;1.92;1.42;;;;;;;20.74;58.32;99886.69;4951968;28;20069;-81
2022/06/07 06:31:17;;;;;;;3.42;1.45;;;;;;;20.72;58.08;99885.22;4961361;28;20058;-80
2022/06/07 06:33:48;;;;;;;2.05;1.30;;;;;;;20.71;57.69;99880.84;4968912;28;20054;-81
2022/06/07 06:36:19;;;;;;;3.67;1.57;;;;;;;20.71;57.78;99873.59;4946110;28;20500;-80
2022/06/07 06:38:47;;;;;;;5.28;1.83;;;;;;;20.67;57.99;99879.59;4962256;28;20449;-84
2022/06/07 06:42:09;;;;;;;2.95;1.33;;;;;;;20.64;57.45;99867.34;4967701;28;20446;-85
2022/06/07 06:45:13;;;;;;;4.80;1.30;;;;;;;20.79;57.64;99870.72;4943818;28;20055;-89
2022/06/07 06:47:44;;;;;;;3.22;1.55;;;;;;;20.83;57.75;99859.50;4953723;28;20073;-84
2022/06/07 06:50:14;;;;;;;1.92;1.50;;;;;;;20.83;57.73;99859.50;4947942;28;20049;-90
2022/06/07 06:52:44;;;;;;;2.15;1.48;;;;;;;20.88;57.58;99860.56;4982258;28;20046;-89
2022/06/07 06:55:13;;;;;;;4.72;1.58;;;;;;;20.89;57.36;99853.28;4967698;28;20046;-82
2022/06/07 06:57:41;;;;;;;2.22;1.20;;;;;;;20.93;57.05;99854.56;4951918;28;20516;-82
2022/06/07 07:00:10;;;;;;;2.92;1.52;;;;;;;20.98;57.27;99869.13;4957418;28;20507;-82
2022/06/07 07:02:41;;;;;;;2.47;1.30;;;;;;;20.97;57.07;99856.66;4987853;28;20134;-80
2022/06/07 07:05:12;;;;;;;5.47;1.80;;;;;;;21.01;56.71;99865.19;4979827;28;20043;-80
2022/06/07 07:07:43;;;;;;;2.08;1.70;;;;;;;20.96;56.37;99875.75;4976049;28;20183;-81
2022/06/07 07:10:18;;;;;;;5.03;1.92;;;;;;;21.03;56.62;99871.22;4949663;28;20053;-80
2022/06/07 07:12:45;;;;;;;3.70;1.90;;;;;;;20.93;56.58;99871.59;4944236;28;20070;-80
2022/06/07 07:15:15;;;;;;;5.43;1.80;;;;;;;20.83;56.49;99867.59;4961560;28;20045;-84
2022/06/07 07:17:48;;;;;;;;;;;;;;;20.71;56.79;99867.34;4956359;28;20142;-83
2022/06/07 07:20:22;;;;;;;2.35;1.60;;;;;;;20.83;57.24;99867.59;4981705;28;19922;-84
2022/06/07 07:22:52;;;;;;;3.22;1.83;;;;;;;20.96;57.02;99870.34;4977724;28;20451;-83
2022/06/07 07:25:20;;;;;;;2.60;1.90;;;;;;;20.92;57.02;99867.25;4948426;28;20047;-82
2022/06/07 07:27:50;;;;;;;2.63;2.00;;;;;;;20.98;56.57;99877.22;4950854;28;20680;-87
2022/06/07 07:30:19;;;;;;;2.22;1.50;;;;;;;21.03;56.59;99882.00;4932487;28;20077;-88
2022/06/07 07:32:46;;;;;;;1.95;1.65;;;;;;;21.03;56.43;99876.63;4953632;28;20084;-86
2022/06/07 07:35:14;;;;;;;4.80;1.90;;;;;;;21.10;56.18;99869.38;4968085;28;20066;-87
2022/06/07 07:37:50;;;;;;;2.08;1.88;;;;;;;21.13;56.30;99874.34;4965150;28;20134;-79
2022/06/07 07:40:17;;;;;;;4.13;1.58;;;;;;;21.10;56.60;99871.25;4987895;28;20070;-79
2022/06/07 07:42:46;;;;;;;2.85;1.38;;;;;;;21.08;56.86;99874.13;4992128;28;20397;-79
2022/06/07 07:45:20;;;;;;;1.85;1.60;;;;;;;21.13;57.14;99868.13;4982312;28;20490;-80
2022/06/07 07:47:51;;;;;;;4.57;1.95;;;;;;;21.19;56.82;99864.59;4984817;28;20050;-80
2022/06/07 07:50:19;;;;;;;2.28;1.63;;;;;;;21.27;56.97;99860.88;4973177;28;20045;-82
2022/06/07 07:52:50;;;;;;;3.17;1.65;;;;;;;21.32;56.70;99856.56;4971766;28;20085;-86
2022/06/07 07:55:17;;;;;;;3.10;1.70;;;;;;;21.39;55.96;99867.38;4967536;28;20050;-83
2022/06/07 07:57:47;;;;;;;2.55;1.88;;;;;;;21.46;55.87;99862.81;4968577;28;20502;-81
2022/06/07 08:00:18;;;;;;;4.20;2.40;;;;;;;21.55;55.13;99864.28;4954138;28;20117;-81
2022/06/07 08:02:55;;;;;;;2.28;1.90;;;;;;;21.57;55.36;99869.47;4930520;28;20051;-82
2022/06/07 08:05:38;;;;;;;3.50;1.92;;;;;;;21.52;55.46;99861.16;4958415;28;20502;-80
2022/06/07 08:08:05;;;;;;;4.25;1.65;;;;;;;21.41;55.63;99868.00;4979550;28;20054;-81
2022/06/07 08:10:33;;;;;;;2.28;2.08;;;;;;;21.31;55.52;99865.66;4999770;28;20049;-81
2022/06/07 08:13:01;;;;;;;3.33;2.63;;;;;;;21.30;55.51;99871.28;4985188;28;20453;-81
2022/06/07 08:15:33;;;;;;;2.70;2.47;;;;;;;21.16;55.30;99867.72;4986742;28;20466;-81
2022/06/07 08:18:02;;;;;;;3.23;2.30;;;;;;;21.10;55.70;99866.66;4931498;28;20043;-81
2022/06/07 08:20:35;;;;;;;2.60;2.28;;;;;;;21.02;55.90;99866.88;4968769;28;20050;-82
2022/06/07 08:23:03;;;;;;;4.15;2.10;;;;;;;21.12;55.98;99866.47;4980960;28;20134;-87
2022/06/07 08:25:31;;;;;;;2.78;2.03;;;;;;;21.12;56.24;99859.22;4952675;28;20046;-85
2022/06/07 08:27:58;;;;;;;2.63;2.13;;;;;;;21.24;55.78;99860.28;4980808;28;20121;-87
2022/06/07 08:30:25;;;;;;;3.83;2.15;;;;;;;21.21;56.23;99859.84;4934897;28;20046;-87
2022/06/07 08:32:52;;;;;;;3.45;2.08;;;;;;;21.24;55.74;99859.41;4952986;28;20092;-89
2022/06/07 08:38:05;;;;;;;4.70;2.40;;;;;;;21.20;55.15;99856.31;4954359;28;20089;-86
2022/06/07 08:40:49;;;;;;;2.58;2.03;;;;;;;21.18;54.98;99855.69;4932386;28;20414;-87
2022/06/07 08:43:19;;;;;;;2.55;1.92;;;;;;;21.24;55.00;99854.00;4944847;28;20095;-86
2022/06/07 08:45:47;;;;;;;3.08;1.95;;;;;;;21.22;54.70;99851.53;4978667;28;20570;-87
2022/06/07 08:48:18;;;;;;;4.13;2.33;;;;;;;21.24;54.78;99844.06;4930181;28;20371;-86
2022/06/07 08:50:50;;;;;;;4.18;1.95;;;;;;;21.29;55.17;99838.03;4955737;28;20038;-86
2022/06/07 08:53:21;;;;;;;3.95;1.92;;;;;;;21.33;53.90;99850.09;4951796;28;20035;-85
2022/06/07 08:55:54;;;;;;;2.42;2.20;;;;;;;21.39;53.83;99834.97;4961576;28;20058;-86
2022/06/07 08:58:28;;;;;;;3.17;1.85;;;;;;;21.43;54.64;99836.22;4955023;28;20398;-90
2022/06/07 09:00:59;;;;;;;2.92;2.00;;;;;;;21.49;54.22;99829.16;4940142;28;20411;-89
2022/06/07 09:03:52;;;;;;;2.10;1.50;;;;;;;21.44;53.58;99827.91;4967270;28;20117;-88
2022/06/07 09:06:23;;;;;;;1.60;1.50;;;;;;;;;;4991876;28;20101;-88
2022/06/07 09:08:54;;;;;;;3.58;1.50;;;;;;;21.50;53.98;99822.69;4965849;28;20050;-89
2022/06/07 09:14:30;;;;;;;;;;;;;;;21.40;52.16;99823.13;4888873;28;20051;-86
2022/06/07 09:16:57;;;;;;;;;;;;;;;21.51;53.05;99817.09;4927743;28;19922;-86
2022/06/07 09:19:28;;;;;;;2.30;1.83;;;;;;;21.57;53.58;99831.66;4918357;28;19922;-85
2022/06/07 09:21:59;;;;;;;6.55;1.80;;;;;;;21.63;53.45;99820.84;4910604;28;20642;-86
2022/06/07 09:24:31;;;;;;;1.77;1.50;;;;;;;21.63;52.66;99809.22;4924076;28;20044;-86
2022/06/07 09:27:05;;;;;;;2.63;1.88;;;;;;;21.54;52.54;99815.84;4891308;29;20138;-85
2022/06/07 09:29:35;;;;;;;4.13;1.85;;;;;;;21.65;52.73;99821.47;4912335;29;20143;-85
2022/06/07 09:32:09;;;;;;;8.13;1.90;;;;;;;21.71;52.98;99810.88;4905013;29;20118;-86
2022/06/07 09:34:48;;;;;;;1.70;1.60;;;;;;;21.74;53.17;99805.88;4895439;28;20725;-85
2022/06/07 09:37:16;;;;;;;2.45;1.83;;;;;;;21.78;52.76;99792.75;4872942;28;20044;-85
2022/06/07 09:39:44;;;;;;;3.47;2.10;;;;;;;21.75;52.99;99791.31;4902659;28;20163;-86
2022/06/07 09:42:22;;;;;;;3.30;2.42;;;;;;;21.74;53.35;99803.16;4891809;29;20051;-83
2022/06/07 09:45:23;;;;;;;2.55;1.95;;;;;;;21.65;52.66;99797.16;4879505;28;20062;-82
2022/06/07 09:47:49;;;;;;;3.47;1.35;;;;;;;21.75;52.45;99801.28;4918387;28;20051;-88
2022/06/07 09:50:33;;;;;;;3.67;1.50;;;;;;;21.70;52.54;99791.09;4933721;28;20054;-88
2022/06/07 09:53:08;;;;;;;2.05;1.48;;;;;;;21.77;52.45;99788.41;4949475;28;20058;-88
2022/06/07 09:55:43;;;;;;;1.65;1.30;;;;;;;21.70;51.92;99776.75;4953649;28;20042;-88
2022/06/07 09:58:20;;;;;;;2.75;1.40;;;;;;;21.69;52.00;99775.94;4933226;28;20058;-86
2022/06/07 10:01:15;;;;;;;2.65;1.30;;;;;;;21.71;49.58;99781.97;4948139;28;20046;-85
2022/06/07 10:03:48;;;;;;;4.18;1.80;;;;;;;21.78;51.99;99776.53;4940930;28;20101;-86
2022/06/07 10:07:02;;;;;;;2.83;1.60;;;;;;;21.75;51.04;99772.38;4959652;28;20053;-86
2022/06/07 10:09:49;;;;;;;1.40;1.30;;;;;;;21.68;48.94;99777.81;4873954;28;20051;-85
2022/06/07 10:12:34;;;;;;;1.95;1.30;;;;;;;21.78;49.58;99774.69;4913309;28;20419;-86
2022/06/07 10:15:19;;;;;;;2.45;1.50;;;;;;;21.79;50.23;99764.72;4947578;28;20053;-86
2022/06/07 10:17:55;;;;;;;1.50;1.40;;;;;;;21.87;50.89;99768.00;4919956;28;20070;-85
2022/06/07 10:21:04;;;;;;;1.42;1.33;;;;;;;21.77;50.02;99762.19;4977754;28;20509;-85
2022/06/07 10:23:58;;;;;;;1.92;1.42;;;;;;;21.87;50.83;99759.88;4934623;28;20050;-85
2022/06/07 10:26:34;;;;;;;4.22;1.50;;;;;;;21.87;50.83;99759.88;4935480;28;20046;-87
2022/06/07 10:29:23;;;;;;;2.35;1.30;;;;;;;21.82;49.48;99762.41;4960446;28;20058;-87
2022/06/07 10:32:41;;;;;;;3.15;1.30;;;;;;;21.81;50.42;99746.41;4909829;28;20042;-88
2022/06/07 10:35:21;;;;;;;2.13;1.40;;;;;;;21.99;49.86;99743.88;4931738;28;20050;-82
2022/06/07 10:37:57;;;;;;;3.25;1.70;;;;;;;22.06;49.97;99736.56;4938350;28;20071;-83
2022/06/07 10:40:26;;;;;;;3.40;1.85;;;;;;;22.03;50.54;99752.38;4961068;28;20102;-83
2022/06/07 10:43:20;;;;;;;2.05;1.20;;;;;;;22.03;49.03;99746.97;4936658;28;20054;-82
2022/06/07 10:45:53;;;;;;;2.10;1.40;;;;;;;22.10;50.09;99743.19;4947609;28;20050;-83
2022/06/07 10:48:32;;;;;;;1.70;1.60;;;;;;;22.12;49.36;99740.28;4934512;28;20457;-83
2022/06/07 10:54:18;;;;;;;1.67;1.58;;;;;;;22.12;49.33;99737.59;4917333;28;20046;-83
2022/06/07 10:56:50;;;;;;;3.50;1.40;;;;;;;22.20;48.76;99739.25;4834834;28;20049;-84
2022/06/07 10:59:21;;;;;;;2.20;1.40;;;;;;;22.26;48.53;99744.66;4803942;29;20069;-83
2022/06/07 11:02:00;;;;;;;1.85;1.52;;;;;;;22.25;48.21;99751.06;4799350;29;20547;-84
2022/06/07 11:10:22;;;;;;;3.17;2.08;;;;;;;22.24;48.01;99730.50;4798157;29;20042;-82
2022/06/07 11:13:08;;;;;;;4.55;1.35;;;;;;;22.31;48.62;99727.75;4763701;29;20039;-81
2022/06/07 11:15:55;;;;;;;2.55;1.60;;;;;;;22.32;47.21;99729.44;4791561;29;20517;-83
2022/06/07 11:18:25;;;;;;;1.77;1.13;;;;;;;22.36;48.14;99727.09;4778408;29;20095;-82
2022/06/07 11:21:03;;;;;;;3.65;1.55;;;;;;;22.35;46.75;99733.56;4799205;29;20034;-79
2022/06/07 11:23:43;;;;;;;1.77;1.40;;;;;;;22.39;48.10;99723.97;4810761;29;20041;-80
2022/06/07 11:26:18;;;;;;;1.55;1.25;;;;;;;22.45;47.26;99723.13;4963588;28;20047;-79
2022/06/07 11:28:47;;;;;;;3.00;1.50;;;;;;;22.50;47.88;99720.59;4938889;28;20097;-81
2022/06/07 11:32:08;;;;;;;2.22;1.27;;;;;;;22.44;46.60;99707.91;4983376;28;20057;-80
2022/06/07 11:34:37;;;;;;;3.60;1.35;;;;;;;22.60;47.05;99720.94;4895910;28;20106;-84
2022/06/07 11:37:08;;;;;;;2.85;1.63;;;;;;;22.68;46.57;99709.03;4946431;28;20071;-84
2022/06/07 11:39:39;;;;;;;4.90;1.80;;;;;;;22.67;47.23;99708.22;4965332;28;20751;-85
2022/06/07 11:42:06;;;;;;;3.47;1.70;;;;;;;22.70;47.78;99706.94;4981457;28;20051;-82
2022/06/07 11:44:45;;;;;;;2.40;1.27;;;;;;;22.73;47.88;99709.22;4983018;28;20042;-83
2022/06/07 11:47:15;;;;;;;2.92;1.50;;;;;;;22.75;46.96;99693.59;4998026;28;20056;-85
2022/06/07 11:49:57;;;;;;;3.00;1.60;;;;;;;22.71;46.43;99695.06;4981746;28;20046;-83
2022/06/07 11:52:33;;;;;;;3.83;1.50;;;;;;;22.75;47.91;99688.19;4927911;28;20051;-85
2022/06/07 11:55:15;;;;;;;2.80;1.50;;;;;;;22.72;45.36;99694.03;4954339;28;20092;-85
2022/06/07 11:58:04;;;;;;;1.40;1.30;;;;;;;22.75;47.20;99686.28;4949990;28;20406;-84
2022/06/07 12:00:32;;;;;;;2.75;1.20;;;;;;;22.76;47.38;99698.75;4969329;28;20549;-82
2022/06/07 12:03:11;;;;;;;3.17;1.20;;;;;;;22.85;47.22;99696.63;4964936;28;20518;-82
2022/06/07 12:05:52;;;;;;;2.33;1.45;;;;;;;22.89;47.46;99684.31;4948727;28;20499;-83
2022/06/07 12:08:37;;;;;;;2.60;1.20;;;;;;;22.93;47.32;99679.28;4886072;28;20051;-86
2022/06/07 12:11:22;;;;;;;3.35;1.40;;;;;;;23.07;46.11;99680.03;4907006;28;20511;-89
2022/06/07 12:14:00;;;;;;;1.60;1.48;;;;;;;22.90;45.78;99677.03;4915623;28;20047;-87
2022/06/07 12:16:44;;;;;;;1.50;1.40;;;;;;;22.87;45.73;99693.69;4908712;28;20467;-88
2022/06/07 12:19:26;;;;;;;3.20;1.63;;;;;;;22.83;46.27;99665.44;4891182;28;20055;-87
2022/06/07 12:21:59;;;;;;;11.18;1.80;;;;;;;22.91;46.62;99667.84;4940343;28;20138;-88
2022/06/07 12:24:26;;;;;;;3.00;1.48;;;;;;;23.00;47.03;99666.56;4906246;28;20050;-90
2022/06/07 12:26:52;;;;;;;3.20;1.55;;;;;;;23.10;45.73;99666.03;4877776;28;20055;-88
2022/06/07 12:29:24;;;;;;;3.33;1.50;;;;;;;23.05;44.36;99655.91;4891904;28;20056;-88
2022/06/07 12:36:25;;;;;;;1.35;1.20;;;;;;;22.99;45.90;99664.06;4902732;28;20036;-89